createdAt,value
2022-08-03T00:01:41.691Z,2.07
2022-08-03T00:04:09.394Z,1.60
2022-08-03T00:06:37.391Z,2.20
2022-08-03T00:09:07.554Z,2.20
2022-08-03T00:11:34.322Z,2.27
2022-08-03T00:14:01.573Z,2.03
2022-08-03T00:16:28.295Z,1.90
2022-08-03T00:18:55.299Z,1.77
2022-08-03T00:21:21.963Z,2.20
2022-08-03T00:23:51.323Z,2.10
2022-08-03T00:26:22.094Z,2.07
2022-08-03T00:28:49.899Z,2.43
2022-08-03T00:31:16.714Z,2.20
2022-08-03T00:33:58.156Z,2.63
2022-08-03T00:36:27.026Z,2.60
2022-08-03T00:38:53.695Z,2.47
2022-08-03T00:41:20.277Z,2.50
2022-08-03T00:43:47.644Z,2.07
2022-08-03T00:46:19.048Z,2.33
2022-08-03T00:48:49.337Z,2.20
2022-08-03T00:51:16.130Z,2.30
2022-08-03T00:53:43.433Z,2.30
2022-08-03T00:56:13.967Z,2.30
2022-08-03T00:58:41.017Z,1.77
2022-08-03T01:01:07.720Z,2.27
2022-08-03T01:03:34.698Z,2.20
2022-08-03T01:06:12.801Z,2.97
2022-08-03T01:09:17.997Z,2.70
2022-08-03T01:12:01.735Z,2.63
2022-08-03T01:14:38.220Z,2.40
2022-08-03T01:17:28.772Z,2.50
2022-08-03T01:20:11.684Z,2.27
2022-08-03T01:23:00.973Z,2.50
2022-08-03T01:25:59.135Z,2.30
2022-08-03T01:28:45.653Z,2.47
2022-08-03T01:31:15.539Z,2.43
2022-08-03T01:33:55.582Z,2.87
2022-08-03T01:36:33.835Z,2.90
2022-08-03T01:39:04.015Z,3.00
2022-08-03T01:41:38.753Z,2.90
2022-08-03T01:44:29.965Z,2.83
2022-08-03T01:47:01.145Z,3.10
2022-08-03T01:49:30.548Z,2.90
2022-08-03T01:52:04.468Z,3.33
2022-08-03T01:54:36.700Z,3.60
2022-08-03T01:57:04.574Z,3.30
2022-08-03T01:59:34.358Z,3.10
2022-08-03T02:02:31.777Z,2.83
2022-08-03T02:04:51.049Z,3.43
2022-08-03T02:07:18.987Z,2.83
2022-08-03T02:09:49.770Z,3.30
2022-08-03T02:12:17.585Z,3.07
2022-08-03T02:14:47.133Z,3.30
2022-08-03T02:17:15.155Z,3.47
2022-08-03T02:19:43.803Z,3.17
2022-08-03T02:22:12.731Z,3.40
2022-08-03T02:24:39.942Z,3.43
2022-08-03T02:27:15.671Z,3.03
2022-08-03T02:29:44.628Z,3.23
2022-08-03T02:32:16.401Z,3.07
2022-08-03T02:34:47.495Z,3.07
2022-08-03T02:37:18.022Z,3.53
2022-08-03T02:39:46.814Z,3.27
2022-08-03T02:42:15.560Z,3.40
2022-08-03T02:44:48.348Z,3.17
2022-08-03T02:47:17.561Z,3.27
2022-08-03T02:49:51.685Z,3.10
2022-08-03T02:52:23.152Z,3.40
2022-08-03T02:54:53.104Z,3.40
2022-08-03T02:57:21.611Z,3.57
2022-08-03T02:59:48.714Z,3.00
2022-08-03T03:02:16.973Z,3.00
2022-08-03T03:05:50.953Z,3.40
2022-08-03T03:07:33.984Z,3.43
2022-08-03T03:10:17.891Z,3.17
2022-08-03T03:12:45.367Z,3.20
2022-08-03T03:15:12.297Z,3.03
2022-08-03T03:17:39.435Z,3.40
2022-08-03T03:20:07.484Z,3.30
2022-08-03T03:22:34.703Z,3.33
2022-08-03T03:25:02.313Z,2.73
2022-08-03T03:27:29.554Z,3.17
2022-08-03T03:29:57.834Z,3.03
2022-08-03T03:32:26.218Z,3.37
2022-08-03T03:34:54.074Z,2.90
2022-08-03T03:37:20.718Z,3.10
2022-08-03T03:39:47.345Z,2.63
2022-08-03T03:42:14.221Z,3.20
2022-08-03T03:44:41.063Z,3.10
2022-08-03T03:47:07.876Z,2.57
2022-08-03T03:49:34.725Z,2.90
2022-08-03T03:52:01.398Z,2.77
2022-08-03T03:54:43.257Z,3.00
2022-08-03T03:57:13.003Z,2.57
2022-08-03T03:59:42.187Z,2.50
2022-08-03T04:02:10.555Z,2.50
2022-08-03T04:04:57.009Z,2.53
2022-08-03T04:07:43.898Z,2.90
2022-08-03T04:10:38.965Z,2.80
2022-08-03T04:13:10.047Z,2.83
2022-08-03T04:15:39.438Z,2.83
2022-08-03T04:18:08.834Z,2.10
2022-08-03T04:20:38.550Z,1.90
2022-08-03T04:23:13.656Z,2.80
2022-08-03T04:25:43.859Z,3.00
2022-08-03T04:28:30.756Z,2.60
2022-08-03T04:31:00.727Z,2.33
2022-08-03T04:33:29.726Z,3.93
2022-08-03T04:36:02.646Z,2.90
2022-08-03T04:38:32.916Z,2.37
2022-08-03T04:41:00.954Z,2.63
2022-08-03T04:43:29.303Z,2.37
2022-08-03T04:45:57.059Z,2.80
2022-08-03T04:48:24.449Z,2.90
2022-08-03T04:50:51.673Z,2.97
2022-08-03T04:53:18.294Z,2.70
2022-08-03T04:55:46.727Z,2.87
2022-08-03T04:58:13.322Z,2.63
2022-08-03T05:00:40.163Z,2.77
2022-08-03T05:03:20.127Z,2.77
2022-08-03T05:06:09.953Z,2.43
2022-08-03T05:08:46.219Z,2.83
2022-08-03T05:11:17.667Z,2.77
2022-08-03T05:13:45.406Z,2.73
2022-08-03T05:16:13.832Z,2.47
2022-08-03T05:18:41.976Z,2.80
2022-08-03T05:21:10.363Z,2.77
2022-08-03T05:23:37.810Z,2.47
2022-08-03T05:26:04.462Z,2.63
2022-08-03T05:28:31.142Z,2.60
2022-08-03T05:30:57.916Z,2.50
2022-08-03T05:33:25.455Z,3.37
2022-08-03T05:35:57.776Z,3.00
2022-08-03T05:38:34.994Z,2.50
2022-08-03T05:41:20.244Z,2.90
2022-08-03T05:43:50.339Z,3.00
2022-08-03T05:46:18.070Z,2.60
2022-08-03T05:48:44.732Z,2.80
2022-08-03T05:51:12.131Z,2.33
2022-08-03T05:53:39.877Z,2.03
2022-08-03T05:56:14.698Z,1.93
2022-08-03T05:58:52.383Z,2.00
2022-08-03T06:01:21.738Z,1.67
2022-08-03T06:03:49.807Z,2.13
2022-08-03T06:06:17.209Z,1.70
2022-08-03T06:08:44.721Z,2.33
2022-08-03T06:11:12.855Z,1.90
2022-08-03T06:13:39.979Z,1.87
2022-08-03T06:16:06.853Z,2.00
2022-08-03T06:18:33.634Z,2.03
2022-08-03T06:21:14.978Z,2.53
2022-08-03T06:23:54.368Z,1.70
2022-08-03T06:26:26.483Z,1.87
2022-08-03T06:28:54.578Z,1.83
2022-08-03T06:31:33.078Z,1.50
2022-08-03T06:34:32.917Z,1.30
2022-08-03T06:36:50.827Z,1.47
2022-08-03T06:39:19.084Z,1.67
2022-08-03T06:41:45.666Z,1.20
2022-08-03T06:44:12.708Z,1.20
2022-08-03T06:46:39.703Z,1.30
2022-08-03T06:49:07.246Z,1.15
2022-08-03T06:52:03.742Z,1.38
2022-08-03T06:54:22.193Z,1.80
2022-08-03T06:56:48.862Z,1.30
2022-08-03T07:00:06.116Z,1.02
2022-08-03T07:02:02.366Z,1.20
2022-08-03T07:04:28.983Z,1.02
2022-08-03T07:06:55.587Z,1.25
2022-08-03T07:09:22.431Z,1.10
2022-08-03T07:11:49.100Z,1.10
2022-08-03T07:14:15.718Z,1.30
2022-08-03T07:16:42.338Z,1.17
2022-08-03T07:19:08.953Z,0.98
2022-08-03T07:21:35.539Z,0.85
2022-08-03T07:24:02.149Z,1.08
2022-08-03T07:26:28.763Z,0.90
2022-08-03T07:28:55.429Z,0.63
2022-08-03T07:31:22.150Z,1.27
2022-08-03T07:33:48.783Z,1.00
2022-08-03T07:36:15.385Z,1.10
2022-08-03T07:38:41.970Z,1.08
2022-08-03T07:41:08.562Z,1.20
2022-08-03T07:43:35.151Z,1.00
2022-08-03T07:46:01.767Z,1.02
2022-08-03T07:48:28.387Z,0.90
2022-08-03T07:50:55.000Z,0.95
2022-08-03T07:53:21.640Z,1.10
2022-08-03T07:55:48.300Z,0.90
2022-08-03T07:58:21.974Z,1.10
2022-08-03T08:00:52.889Z,1.30
2022-08-03T08:03:19.795Z,1.20
2022-08-03T08:05:46.667Z,1.15
2022-08-03T08:08:13.524Z,1.02
2022-08-03T08:10:40.331Z,1.00
2022-08-03T08:13:07.042Z,1.10
2022-08-03T08:15:33.792Z,1.10
2022-08-03T08:18:02.371Z,0.73
2022-08-03T08:20:32.087Z,0.93
2022-08-03T08:23:09.635Z,0.82
2022-08-03T08:25:53.766Z,1.00
2022-08-03T08:28:32.558Z,1.00
2022-08-03T08:31:00.297Z,1.00
2022-08-03T08:33:37.245Z,1.10
2022-08-03T08:36:15.610Z,0.93
2022-08-03T08:38:44.394Z,0.63
2022-08-03T08:41:12.599Z,0.85
2022-08-03T08:43:39.593Z,1.00
2022-08-03T08:46:08.344Z,0.85
2022-08-03T08:48:38.571Z,0.90
2022-08-03T08:51:05.981Z,1.10
2022-08-03T08:53:36.734Z,0.82
2022-08-03T08:56:05.317Z,1.15
2022-08-03T08:58:38.617Z,0.98
2022-08-03T09:01:05.661Z,1.00
2022-08-03T09:03:34.301Z,1.27
2022-08-03T09:06:02.016Z,1.05
2022-08-03T09:08:33.022Z,1.08
2022-08-03T09:11:00.139Z,1.20
2022-08-03T09:13:27.172Z,0.95
2022-08-03T09:16:13.940Z,0.90
2022-08-03T09:18:42.015Z,1.33
2022-08-03T09:21:31.160Z,1.20
2022-08-03T09:24:03.217Z,1.20
2022-08-03T09:26:31.652Z,1.08
2022-08-03T09:29:10.900Z,1.10
2022-08-03T09:31:46.203Z,1.00
2022-08-03T09:34:15.448Z,0.98
2022-08-03T09:36:43.746Z,1.20
2022-08-03T09:39:14.758Z,1.45
2022-08-03T09:41:47.127Z,0.80
2022-08-03T09:44:24.640Z,1.10
2022-08-03T09:46:55.602Z,1.35
2022-08-03T09:49:23.098Z,1.27
2022-08-03T09:52:33.568Z,0.95
2022-08-03T09:54:37.169Z,1.10
2022-08-03T09:57:04.159Z,1.60
2022-08-03T09:59:32.447Z,1.40
2022-08-03T10:02:00.455Z,1.40
2022-08-03T10:04:27.160Z,1.20
2022-08-03T10:07:10.661Z,1.90
2022-08-03T10:09:37.962Z,1.48
2022-08-03T10:12:12.776Z,1.92
2022-08-03T10:14:41.830Z,1.50
2022-08-03T10:17:09.730Z,1.38
2022-08-03T10:19:36.848Z,1.10
2022-08-03T10:22:19.083Z,1.52
2022-08-03T10:25:08.238Z,1.20
2022-08-03T10:27:41.403Z,1.20
2022-08-03T10:30:10.819Z,1.33
2022-08-03T10:32:48.638Z,1.00
2022-08-03T10:35:20.672Z,1.10
2022-08-03T10:38:07.079Z,0.90
2022-08-03T10:40:52.649Z,1.10
2022-08-03T10:43:27.606Z,1.08
2022-08-03T10:45:56.004Z,1.02
2022-08-03T10:48:23.067Z,1.02
2022-08-03T10:50:50.632Z,0.98
2022-08-03T10:53:33.482Z,1.10
2022-08-03T10:56:19.679Z,1.30
2022-08-03T10:59:03.883Z,0.90
2022-08-03T11:02:00.183Z,1.00
2022-08-03T11:04:29.282Z,0.88
2022-08-03T11:07:19.370Z,1.50
2022-08-03T11:09:49.110Z,1.35
2022-08-03T11:12:31.740Z,1.30
2022-08-03T11:15:08.425Z,1.00
2022-08-03T11:17:46.321Z,3.45
2022-08-03T11:20:48.316Z,1.30
2022-08-03T11:23:16.433Z,1.15
2022-08-03T11:26:18.032Z,0.98
2022-08-03T11:28:47.068Z,2.45
2022-08-03T11:31:48.110Z,1.50
2022-08-03T11:34:11.940Z,0.88
2022-08-03T11:37:16.383Z,0.82
2022-08-03T11:39:45.631Z,0.90
2022-08-03T11:42:24.423Z,0.70
2022-08-03T11:44:56.737Z,0.70
2022-08-03T11:47:27.051Z,0.80
2022-08-03T11:50:00.532Z,0.77
2022-08-03T11:52:33.646Z,0.65
2022-08-03T11:55:00.641Z,0.80
2022-08-03T11:59:11.284Z,0.90
2022-08-03T12:00:30.171Z,0.70
2022-08-03T12:03:05.936Z,0.68
2022-08-03T12:05:42.400Z,0.63
2022-08-03T12:08:31.242Z,0.70
2022-08-03T12:11:01.115Z,0.82
2022-08-03T12:14:45.267Z,0.70
2022-08-03T12:16:24.082Z,0.57
2022-08-03T12:19:06.533Z,0.60
2022-08-03T12:21:33.544Z,0.55
2022-08-03T12:24:04.516Z,0.45
2022-08-03T12:26:58.261Z,0.70
2022-08-03T12:29:26.226Z,0.50
2022-08-03T12:31:52.899Z,0.50
2022-08-03T12:34:19.663Z,0.60
2022-08-03T12:36:55.983Z,0.43
2022-08-03T12:39:30.983Z,0.57
2022-08-03T12:41:57.850Z,0.95
2022-08-03T12:44:32.779Z,0.52
2022-08-03T12:47:00.382Z,0.70
2022-08-03T12:49:27.227Z,0.60
2022-08-03T12:51:53.821Z,0.60
2022-08-03T12:54:24.711Z,0.60
2022-08-03T12:57:08.246Z,0.30
2022-08-03T12:59:40.821Z,0.55
2022-08-03T13:02:28.605Z,0.68
2022-08-03T13:04:55.642Z,0.70
2022-08-03T13:07:23.164Z,0.77
2022-08-03T13:09:55.359Z,0.70
2022-08-03T13:12:26.983Z,0.43
2022-08-03T13:14:56.485Z,0.50
2022-08-03T13:17:23.314Z,0.50
2022-08-03T13:19:50.393Z,0.60
2022-08-03T13:22:22.307Z,0.80
2022-08-03T13:24:51.362Z,0.70
2022-08-03T13:28:02.707Z,0.65
2022-08-03T13:30:05.467Z,0.70
2022-08-03T13:32:33.106Z,0.60
2022-08-03T13:34:59.921Z,0.40
2022-08-03T13:37:26.988Z,0.40
2022-08-03T13:39:59.662Z,0.70
2022-08-03T13:42:33.915Z,0.40
2022-08-03T13:45:03.130Z,0.40
2022-08-03T13:47:29.983Z,0.60
2022-08-03T13:50:01.806Z,0.60
2022-08-03T13:52:30.825Z,0.50
2022-08-03T13:54:57.468Z,0.50
2022-08-03T13:58:03.970Z,0.60
2022-08-03T14:00:12.007Z,0.60
2022-08-03T14:02:38.743Z,0.50
2022-08-03T14:05:05.930Z,0.43
2022-08-03T14:07:32.506Z,0.60
2022-08-03T14:09:59.090Z,0.40
2022-08-03T14:12:25.701Z,0.50
2022-08-03T14:14:52.371Z,0.60
2022-08-03T14:17:19.411Z,0.35
2022-08-03T14:19:53.460Z,0.45
2022-08-03T14:22:21.601Z,0.30
2022-08-03T14:24:49.176Z,0.40
2022-08-03T14:27:16.333Z,0.47
2022-08-03T14:29:42.993Z,0.50
2022-08-03T14:32:13.168Z,0.50
2022-08-03T14:34:40.750Z,0.60
2022-08-03T14:37:07.743Z,0.60
2022-08-03T14:42:21.437Z,0.70
2022-08-03T14:44:48.073Z,0.55
2022-08-03T14:47:14.947Z,0.30
2022-08-03T14:50:38.922Z,0.50
2022-08-03T14:52:28.637Z,0.50
2022-08-03T14:54:55.277Z,0.40
2022-08-03T14:57:22.227Z,0.43
2022-08-03T14:59:56.793Z,0.52
2022-08-03T15:02:25.152Z,0.38
2022-08-03T15:04:52.474Z,0.60
2022-08-03T15:07:20.312Z,0.32
2022-08-03T15:09:47.278Z,0.43
2022-08-03T15:12:13.966Z,0.63
2022-08-03T15:14:40.630Z,0.40
2022-08-03T15:17:07.508Z,0.32
2022-08-03T15:20:02.917Z,0.40
2022-08-03T15:22:25.412Z,0.40
2022-08-03T15:25:02.699Z,0.50
2022-08-03T15:27:29.343Z,0.50
2022-08-03T15:30:05.630Z,0.63
2022-08-03T15:32:34.636Z,0.60
2022-08-03T15:35:02.019Z,0.40
2022-08-03T15:37:28.688Z,0.50
2022-08-03T15:39:59.414Z,0.60
2022-08-03T15:42:29.110Z,0.40
2022-08-03T15:44:55.789Z,0.50
2022-08-03T15:47:22.699Z,0.60
2022-08-03T15:49:49.562Z,0.60
2022-08-03T15:52:16.248Z,0.68
2022-08-03T15:54:43.031Z,0.60
2022-08-03T15:57:09.721Z,0.50
2022-08-03T15:59:36.543Z,0.55
2022-08-03T16:02:03.587Z,0.52
2022-08-03T16:04:30.238Z,0.50
2022-08-03T16:06:56.857Z,0.52
2022-08-03T16:09:42.086Z,0.82
2022-08-03T16:12:15.704Z,0.60
2022-08-03T16:14:52.318Z,0.73
2022-08-03T16:17:19.595Z,0.70
2022-08-03T16:19:46.493Z,0.70
2022-08-03T16:22:13.425Z,0.50
2022-08-03T16:24:41.323Z,0.70
2022-08-03T16:27:17.509Z,0.80
2022-08-03T16:29:54.882Z,0.50
2022-08-03T16:32:21.598Z,0.57
2022-08-03T16:34:48.386Z,0.63
2022-08-03T16:37:37.766Z,0.52
2022-08-03T16:40:02.928Z,0.63
2022-08-03T16:42:29.661Z,1.10
2022-08-03T16:44:56.295Z,0.60
2022-08-03T16:47:23.167Z,0.65
2022-08-03T16:49:54.266Z,0.80
2022-08-03T16:52:23.619Z,0.60
2022-08-03T16:54:53.168Z,0.80
2022-08-03T16:57:56.407Z,0.70
2022-08-03T17:00:10.037Z,0.82
2022-08-03T17:02:37.183Z,0.80
2022-08-03T17:05:04.757Z,0.50
2022-08-03T17:07:31.541Z,0.68
2022-08-03T17:09:58.913Z,0.80
2022-08-03T17:12:26.702Z,0.68
2022-08-03T17:14:54.315Z,0.70
2022-08-03T17:17:47.584Z,0.80
2022-08-03T17:20:20.031Z,0.93
2022-08-03T17:23:05.761Z,0.70
2022-08-03T17:26:02.497Z,0.77
2022-08-03T17:28:51.905Z,0.57
2022-08-03T17:31:31.366Z,1.02
2022-08-03T17:34:01.161Z,0.88
2022-08-03T17:39:17.213Z,0.80
2022-08-03T17:41:50.018Z,0.80
2022-08-03T17:44:33.157Z,0.60
2022-08-03T17:47:06.441Z,0.82
2022-08-03T17:49:40.001Z,0.80
2022-08-03T17:52:17.851Z,0.90
2022-08-03T17:55:57.324Z,0.80
2022-08-03T17:58:17.104Z,0.85
2022-08-03T18:01:58.245Z,0.95
2022-08-03T18:03:59.407Z,0.80
2022-08-03T18:06:31.132Z,0.98
2022-08-03T18:08:59.988Z,0.88
2022-08-03T18:11:35.337Z,0.90
2022-08-03T18:14:36.966Z,0.80
2022-08-03T18:17:10.550Z,0.70
2022-08-03T18:20:02.124Z,1.10
2022-08-03T18:22:27.098Z,0.60
2022-08-03T18:24:55.955Z,0.85
2022-08-03T18:27:23.398Z,0.60
2022-08-03T18:30:12.162Z,0.93
2022-08-03T18:32:39.255Z,0.90
2022-08-03T18:35:07.086Z,0.70
2022-08-03T18:37:51.926Z,0.93
2022-08-03T18:40:20.844Z,0.90
2022-08-03T18:42:51.079Z,1.10
2022-08-03T18:45:56.153Z,1.20
2022-08-03T18:48:31.413Z,0.90
2022-08-03T18:51:06.824Z,0.88
2022-08-03T18:54:11.904Z,1.60
2022-08-03T18:57:01.824Z,0.90
2022-08-03T18:59:52.781Z,0.80
2022-08-03T19:02:33.920Z,0.95
2022-08-03T19:05:08.873Z,0.80
2022-08-03T19:07:38.096Z,0.80
2022-08-03T19:10:06.209Z,0.90
2022-08-03T19:12:50.244Z,1.00
2022-08-03T19:15:21.219Z,0.85
2022-08-03T19:20:54.675Z,0.73
2022-08-03T19:23:24.977Z,0.95
2022-08-03T19:25:53.062Z,0.98
2022-08-03T19:28:22.041Z,1.30
2022-08-03T19:30:59.926Z,0.95
2022-08-03T19:33:33.157Z,1.08
2022-08-03T19:36:26.445Z,1.10
2022-08-03T19:38:55.485Z,1.00
2022-08-03T19:41:27.351Z,1.38
2022-08-03T19:44:04.411Z,1.15
2022-08-03T19:46:33.801Z,1.30
2022-08-03T19:49:14.634Z,1.30
2022-08-03T19:52:00.615Z,1.50
2022-08-03T19:54:45.498Z,1.48
2022-08-03T19:57:27.010Z,1.45
2022-08-03T19:59:54.986Z,1.60
2022-08-03T20:02:26.173Z,1.67
2022-08-03T20:04:54.932Z,1.63
2022-08-03T20:07:22.946Z,1.10
2022-08-03T20:09:54.565Z,1.10
2022-08-03T20:12:28.744Z,0.98
2022-08-03T20:14:59.333Z,1.30
2022-08-03T20:17:55.343Z,1.13
2022-08-03T20:20:23.983Z,1.10
2022-08-03T20:22:53.005Z,1.15
2022-08-03T20:25:37.538Z,1.50
2022-08-03T20:28:14.908Z,1.20
2022-08-03T20:30:44.322Z,1.10
2022-08-03T20:33:19.027Z,1.33
2022-08-03T20:36:00.559Z,1.50
2022-08-03T20:38:27.466Z,1.02
2022-08-03T20:40:54.470Z,1.00
2022-08-03T20:43:21.730Z,1.30
2022-08-03T20:45:59.918Z,1.10
2022-08-03T20:48:36.649Z,1.35
2022-08-03T20:51:19.543Z,1.10
2022-08-03T20:53:59.893Z,1.13
2022-08-03T20:56:32.417Z,1.00
2022-08-03T20:59:05.616Z,1.40
2022-08-03T21:01:36.513Z,1.20
2022-08-03T21:04:09.245Z,1.13
2022-08-03T21:06:41.619Z,1.13
2022-08-03T21:09:19.504Z,1.10
2022-08-03T21:11:51.622Z,1.07
2022-08-03T21:13:01.992Z,0.80
2022-08-03T21:15:01.341Z,1.13
2022-08-03T21:17:40.373Z,1.30
2022-08-03T21:20:09.392Z,1.57
2022-08-03T21:22:39.075Z,1.30
2022-08-03T21:25:09.136Z,1.43
2022-08-03T21:27:36.821Z,1.50
2022-08-03T21:30:07.854Z,1.20
2022-08-03T21:32:34.811Z,1.30
2022-08-03T21:35:02.047Z,1.07
2022-08-03T21:37:28.941Z,1.20
2022-08-03T21:39:56.516Z,1.37
2022-08-03T21:42:23.891Z,1.10
2022-08-03T21:44:53.946Z,1.37
2022-08-03T21:47:24.830Z,1.30
2022-08-03T21:50:08.373Z,1.00
2022-08-03T21:52:44.404Z,1.33
2022-08-03T21:55:18.640Z,1.13
2022-08-03T21:57:53.355Z,1.30
2022-08-03T22:00:22.804Z,1.37
2022-08-03T22:02:55.601Z,1.10
2022-08-03T22:05:42.662Z,1.30
2022-08-03T22:08:11.205Z,1.23
2022-08-03T22:10:38.105Z,1.63
2022-08-03T22:13:04.772Z,1.10
2022-08-03T22:15:32.283Z,1.10
2022-08-03T22:18:03.231Z,1.13
2022-08-03T22:20:30.199Z,1.13
2022-08-03T22:23:00.458Z,1.37
2022-08-03T22:25:30.438Z,1.47
2022-08-03T22:28:00.644Z,1.33
2022-08-03T22:30:27.630Z,0.90
2022-08-03T22:32:56.141Z,1.40
2022-08-03T22:35:24.845Z,1.63
2022-08-03T22:37:54.378Z,1.63
2022-08-03T22:40:21.064Z,1.40
2022-08-03T22:42:52.309Z,1.90
2022-08-03T22:46:06.193Z,2.03
2022-08-03T22:48:08.056Z,1.10
2022-08-03T22:50:35.021Z,1.37
2022-08-03T22:53:02.082Z,1.50
2022-08-03T22:55:28.950Z,1.30
2022-08-03T22:57:55.887Z,1.67
2022-08-03T23:00:24.372Z,2.07
2022-08-03T23:02:53.614Z,1.40
2022-08-03T23:06:00.280Z,1.40
2022-08-03T23:08:14.512Z,1.60
2022-08-03T23:10:46.655Z,1.80
2022-08-03T23:13:16.302Z,1.53
2022-08-03T23:15:51.081Z,1.50
2022-08-03T23:18:20.691Z,1.60
2022-08-03T23:20:51.039Z,1.90
2022-08-03T23:23:19.825Z,1.73
2022-08-03T23:25:49.395Z,1.67
2022-08-03T23:28:16.382Z,1.57
2022-08-03T23:30:47.620Z,1.40
2022-08-03T23:33:16.123Z,1.47
2022-08-03T23:36:29.848Z,1.40
2022-08-03T23:38:47.556Z,1.50
2022-08-03T23:41:16.470Z,1.87
2022-08-03T23:43:51.966Z,1.47
2022-08-03T23:46:22.545Z,1.83
2022-08-03T23:48:50.111Z,1.60
2022-08-03T23:51:34.782Z,1.33
2022-08-03T23:54:17.930Z,1.73
2022-08-03T23:57:03.290Z,1.33
